Las Vegas, Nevada
Traffic Map
Current Weather Conditions
Las Vegas, Nevada
Clear
Clear
28°
Feels Like: 28°
Wind Chill: 28° Ceiling: Unl
Heat Index: 28° Visibility: 10mi
Dew Point: -7° Wind: 10mph
Humidity: 10% Direction: 60° (ENE)
Pressure: 29.87in Gusts: 0mph
Raw Report DataKLAS 012356Z 06009KT 10SM CLR 28/M07 A2987 RMK AO2 SLP096 T02781067 10289 20261 51003
Traffic Incident Summary
Active as of:
Severity:
Category:
InformationThere was an issue retrieving the traffic information for this location. Please try a different location or try again shortly.
Advertisements
Track Severe Weather on mobile